SYY weather

Stornoway Airport
Stornoway, Scotland, United Kingdom

Public forecast

Using degrees Celsius for public forecast. Weather courtesy of forecast.io.

METAR (pilot weather report)

Retrieved 2019/03/19 14:50 UTC (15 minutes ago):

EGPO 191450Z 25019KT 4000 -RADZ FEW003 SCT005 BKN007 10/09 Q1014

TAF (pilot weather forecast)

Forecast is more than 12 hours old.

Retrieved 2017/03/05 03:00 UTC (2 years ago):

TAF TAF EGPO 050556Z 0503/0515 CNL